Time;durP1;ratioP1;P1;durP2;ratioP2;P2;SDS_P1;SDS_P2;PMS_P1;PMS_P2;Temp;Humidity;BMP_temperature;BMP_pressure;BME280_temperature;BME280_humidity;BME280_pressure;Samples;Min_cycle;Max_cycle;Signal;HPM_P1;HPM_P2
2023/04/21 00:01:20;;;;;;;;;;;;;;;5.33;84.82;102047.94;5011971;28;19995;-69
2023/04/21 00:03:46;;;;;;;;;;;;;;;5.33;85.04;102048.78;4995074;28;19945;-69
2023/04/21 00:06:11;;;;;;;;;;;;;;;5.32;84.27;102036.53;5013044;28;19913;-68
2023/04/21 00:08:39;;;;;;;;;;;;;;;5.33;85.16;102032.09;5013740;28;19918;-69
2023/04/21 00:11:06;;;;;;;;;;;;;;;5.29;85.16;102037.56;4981480;28;19920;-65
2023/04/21 00:13:32;;;;;;;;;;;;;;;5.27;83.85;102036.81;4996256;28;20004;-68
2023/04/21 00:15:57;;;;;;;;;;;;;;;5.26;85.06;102035.13;4995060;28;20024;-68
2023/04/21 00:18:24;;;;;;;;;;;;;;;5.23;85.19;102029.19;4995164;28;20016;-66
2023/04/21 00:20:49;;;;;;;;;;;;;;;5.19;85.52;102030.31;4995674;28;19917;-67
2023/04/21 00:23:15;;;;;;;;;;;;;;;5.16;85.30;102028.72;4994969;28;20198;-67
2023/04/21 00:25:40;;;;;;;;;;;;;;;5.11;86.86;102025.53;5013226;28;19957;-67
2023/04/21 00:28:06;;;;;;;;;;;;;;;5.06;86.10;102024.97;5012863;28;20012;-68
2023/04/21 00:30:31;;;;;;;;;;;;;;;5.01;87.19;102019.13;5010962;28;19961;-67
2023/04/21 00:32:56;;;;;;;;;;;;;;;4.95;88.17;102015.09;5012491;28;19917;-68
2023/04/21 00:35:22;;;;;;;;;;;;;;;4.91;88.32;102018.84;5012664;28;19921;-68
2023/04/21 00:37:49;;;;;;;;;;;;;;;4.89;88.22;102018.09;5011665;28;19920;-69
2023/04/21 00:40:14;;;;;;;;;;;;;;;4.85;89.10;102018.38;5012009;28;19956;-67
2023/04/21 00:42:39;;;;;;;;;;;;;;;4.81;91.25;102016.88;5012169;28;19968;-68
2023/04/21 00:45:05;;;;;;;;;;;;;;;4.77;91.41;102010.94;4995507;28;19913;-68
2023/04/21 00:47:30;;;;;;;;;;;;;;;4.75;92.08;102012.81;5016061;28;20003;-68
2023/04/21 00:49:56;;;;;;;;;;;;;;;4.78;90.10;102014.44;5016120;28;20020;-68
2023/04/21 00:52:21;;;;;;;;;;;;;;;4.80;90.03;102012.53;5015726;28;20357;-68
2023/04/21 00:54:47;;;;;;;;;;;;;;;4.83;90.11;102004.44;5015713;28;20016;-68
2023/04/21 00:57:12;;;;;;;;;;;;;;;4.85;89.94;102013.09;5015642;28;20003;-68
2023/04/21 00:59:37;;;;;;;;;;;;;;;4.85;90.56;102010.47;5015654;28;20285;-68
2023/04/21 01:02:03;;;;;;;;;;;;;;;4.88;90.55;102013.75;5015991;28;19917;-68
2023/04/21 01:04:34;;;;;;;;;;;;;;;4.92;89.82;102011.78;5015806;28;19949;-69
2023/04/21 01:07:00;;;;;;;;;;;;;;;4.90;90.64;102006.59;5015608;28;20012;-67
2023/04/21 01:09:25;;;;;;;;;;;;;;;4.93;89.84;102010.84;5015580;28;20388;-67
2023/04/21 01:12:02;;;;;;;;;;;;;;;4.94;90.46;102005.47;5015528;28;19924;-68
2023/04/21 01:14:28;;;;;;;;;;;;;;;4.92;91.47;102007.38;5015725;28;19917;-68
2023/04/21 01:16:53;;;;;;;;;;;;;;;4.93;90.64;102002.94;5015685;28;19921;-68
2023/04/21 01:19:19;;;;;;;;;;;;;;;4.96;90.34;102000.09;5016397;28;19921;-68
2023/04/21 01:21:44;;;;;;;;;;;;;;;4.96;91.61;101998.31;5016695;28;19976;-69
2023/04/21 01:24:10;;;;;;;;;;;;;;;4.95;90.95;101999.25;5016119;28;19913;-67
2023/04/21 01:26:36;;;;;;;;;;;;;;;4.98;90.86;102003.50;5015271;28;20463;-69
2023/04/21 01:29:02;;;;;;;;;;;;;;;5.00;89.87;102001.59;5015098;28;19957;-69
2023/04/21 01:31:27;;;;;;;;;;;;;;;5.03;89.88;102003.19;5015180;28;20381;-68
2023/04/21 01:33:52;;;;;;;;;;;;;;;5.05;90.20;101998.66;5015271;28;19913;-68
2023/04/21 01:36:18;;;;;;;;;;;;;;;5.04;90.34;102003.09;5015252;28;19920;-68
2023/04/21 01:38:44;;;;;;;;;;;;;;;5.02;90.98;101994.44;5015025;28;19917;-68
2023/04/21 01:41:10;;;;;;;;;;;;;;;5.02;90.56;101993.56;5014870;28;19924;-68
2023/04/21 01:43:36;;;;;;;;;;;;;;;4.99;90.95;101989.34;5015036;28;19913;-67
2023/04/21 01:46:02;;;;;;;;;;;;;;;4.96;90.59;101994.81;4997844;28;19917;-67
2023/04/21 01:48:27;;;;;;;;;;;;;;;4.97;90.67;101996.50;5015164;28;19960;-68
2023/04/21 01:50:53;;;;;;;;;;;;;;;4.97;90.91;101991.22;5014974;28;19917;-69
2023/04/21 01:53:18;;;;;;;;;;;;;;;4.96;90.32;101989.53;5014871;28;19952;-69
2023/04/21 01:55:43;;;;;;;;;;;;;;;4.96;91.29;101994.81;5015340;28;19959;-68
2023/04/21 01:58:09;;;;;;;;;;;;;;;4.93;90.93;101995.00;5014419;28;20002;-68
2023/04/21 02:00:34;;;;;;;;;;;;;;;4.91;91.88;101991.59;5015005;28;19914;-68
2023/04/21 02:03:25;;;;;;;;;;;;;;;4.89;92.75;102004.03;5016260;28;19925;-68
2023/04/21 02:05:51;;;;;;;;;;;;;;;4.89;92.39;101991.69;5030237;28;20019;-67
2023/04/21 02:08:16;;;;;;;;;;;;;;;4.88;92.31;101992.63;5014749;28;20313;-67
2023/04/21 02:10:42;;;;;;;;;;;;;;;4.88;92.18;101997.06;5014704;28;19914;-68
2023/04/21 02:13:07;;;;;;;;;;;;;;;4.86;92.98;101998.94;5014815;28;19952;-68
2023/04/21 02:15:32;;;;;;;;;;;;;;;4.84;92.68;102004.34;5014572;28;20294;-69
2023/04/21 02:17:58;;;;;;;;;;;;;;;4.84;93.24;101992.94;5013168;28;20023;-68
2023/04/21 02:20:23;;;;;;;;;;;;;;;4.83;92.17;101988.59;5014304;28;19924;-68
2023/04/21 02:22:48;;;;;;;;;;;;;;;4.80;92.79;101992.28;5014165;28;19924;-67
2023/04/21 02:25:14;;;;;;;;;;;;;;;4.71;95.02;101987.56;5014216;28;19913;-69
2023/04/21 02:27:39;;;;;;;;;;;;;;;4.66;94.70;101985.22;5014907;28;19917;-67
2023/04/21 02:30:30;;;;;;;;;;;;;;;4.62;97.64;101985.47;5032188;28;19922;-68
2023/04/21 02:32:55;;;;;;;;;;;;;;;4.60;97.76;101977.66;5019442;28;19921;-68
2023/04/21 02:35:21;;;;;;;;;;;;;;;4.63;97.92;101971.38;5019827;28;19972;-68
2023/04/21 02:37:46;;;;;;;;;;;;;;;4.60;98.11;101972.38;4997524;28;19936;-68
2023/04/21 02:40:11;;;;;;;;;;;;;;;4.59;97.98;101975.13;5014646;28;19968;-66
2023/04/21 02:42:37;;;;;;;;;;;;;;;4.64;96.65;101973.06;5014619;28;19920;-68
2023/04/21 02:45:02;;;;;;;;;;;;;;;4.69;96.93;101964.88;5014673;28;19941;-68
2023/04/21 02:47:29;;;;;;;;;;;;;;;4.72;97.42;101964.66;5014087;28;20353;-67
2023/04/21 02:49:54;;;;;;;;;;;;;;;4.72;97.10;101960.25;5013557;28;19921;-67
2023/04/21 02:52:19;;;;;;;;;;;;;;;4.78;96.68;101965.13;5013964;28;20268;-68
2023/04/21 02:54:44;;;;;;;;;;;;;;;4.84;96.58;101962.09;5013790;28;20023;-68
2023/04/21 02:57:10;;;;;;;;;;;;;;;4.90;96.97;101958.22;4996253;28;20356;-69
2023/04/21 02:59:35;;;;;;;;;;;;;;;4.88;97.83;101950.41;5013707;28;19913;-67
2023/04/21 03:02:00;;;;;;;;;;;;;;;4.88;97.58;101954.84;5013524;28;19914;-69
2023/04/21 03:04:26;;;;;;;;;;;;;;;4.93;96.50;101953.63;5014066;28;19925;-66
2023/04/21 03:06:52;;;;;;;;;;;;;;;4.97;98.65;101955.13;5013346;28;19925;-70
2023/04/21 03:09:17;;;;;;;;;;;;;;;4.97;98.78;101954.28;5012778;28;19914;-68
2023/04/21 03:11:42;;;;;;;;;;;;;;;5.01;99.07;101954.91;5015239;28;19921;-68
2023/04/21 03:14:08;;;;;;;;;;;;;;;5.03;100.00;101959.16;5014045;28;19921;-68
2023/04/21 03:16:33;;;;;;;;;;;;;;;5.03;99.98;101953.88;5013598;28;19913;-68
2023/04/21 03:18:58;;;;;;;;;;;;;;;5.06;99.41;101953.69;5013446;28;19917;-68
2023/04/21 03:21:24;;;;;;;;;;;;;;;5.08;99.34;101959.69;5012304;28;19962;-71
2023/04/21 03:23:49;;;;;;;;;;;;;;;5.03;100.00;101961.78;5013623;28;19918;-69
2023/04/21 03:26:15;;;;;;;;;;;;;;;5.04;99.40;101963.50;5014327;28;19914;-67
2023/04/21 03:28:40;;;;;;;;;;;;;;;5.12;98.72;101963.84;5015757;28;19917;-67
2023/04/21 03:31:06;;;;;;;;;;;;;;;5.19;99.43;101970.41;5012928;28;20365;-68
2023/04/21 03:33:31;;;;;;;;;;;;;;;5.24;99.02;101957.78;5015707;28;19924;-68
2023/04/21 03:35:56;;;;;;;;;;;;;;;5.33;99.01;101958.13;5012912;28;19952;-68
2023/04/21 03:38:22;;;;;;;;;;;;;;;5.41;97.73;101956.69;5012927;28;20012;-67
2023/04/21 03:40:47;;;;;;;;;;;;;;;5.54;98.22;101965.50;5012878;28;19936;-66
2023/04/21 03:43:12;;;;;;;;;;;;;;;5.67;98.14;101964.69;5012865;28;20012;-68
2023/04/21 03:45:38;;;;;;;;;;;;;;;5.76;96.87;101964.91;5012554;28;20357;-68
2023/04/21 03:48:03;;;;;;;;;;;;;;;5.83;94.22;101966.22;5012773;28;20346;-69
2023/04/21 03:50:29;;;;;;;;;;;;;;;5.93;95.47;101960.34;5012581;28;19917;-68
2023/04/21 03:52:54;;;;;;;;;;;;;;;6.00;94.91;101957.16;5012839;28;19921;-68
2023/04/21 03:55:19;;;;;;;;;;;;;;;6.05;95.27;101963.00;5012990;28;19981;-68
2023/04/21 03:57:45;;;;;;;;;;;;;;;6.04;95.10;101958.66;5012828;28;20356;-68
2023/04/21 04:00:11;;;;;;;;;;;;;;;6.04;95.31;101963.09;5012810;28;19920;-69
2023/04/21 04:02:37;;;;;;;;;;;;;;;6.12;93.75;101963.44;5012916;28;19913;-68
2023/04/21 04:05:02;;;;;;;;;;;;;;;6.15;93.78;101971.16;5012528;28;20323;-67
2023/04/21 04:07:28;;;;;;;;;;;;;;;6.22;93.04;101972.44;5012848;28;19913;-69
2023/04/21 04:09:54;;;;;;;;;;;;;;;6.26;92.96;101968.63;5013425;28;19933;-69
2023/04/21 04:12:19;;;;;;;;;;;;;;;6.34;92.87;101968.94;5013710;28;19917;-68
2023/04/21 04:14:45;;;;;;;;;;;;;;;6.38;92.20;101972.25;5011709;28;19936;-68
2023/04/21 04:17:10;;;;;;;;;;;;;;;6.38;91.25;101959.84;5012059;28;19960;-68
2023/04/21 04:19:36;;;;;;;;;;;;;;;6.38;91.86;101962.50;5011769;28;19960;-69
2023/04/21 04:22:01;;;;;;;;;;;;;;;6.32;91.85;101957.63;5015674;28;19929;-68
2023/04/21 04:24:27;;;;;;;;;;;;;;;6.35;92.47;101957.41;5016086;28;19920;-67
2023/04/21 04:26:53;;;;;;;;;;;;;;;6.42;91.24;101957.84;5015535;28;19949;-69
2023/04/21 04:29:20;;;;;;;;;;;;;;;6.49;91.21;101959.94;4997764;28;19939;-68
2023/04/21 04:31:45;;;;;;;;;;;;;;;6.56;91.29;101948.94;4997284;28;20400;-69
2023/04/21 04:34:11;;;;;;;;;;;;;;;6.58;90.87;101954.97;5015846;28;19949;-68
2023/04/21 04:36:36;;;;;;;;;;;;;;;6.58;90.76;101952.31;5016193;28;19913;-68
2023/04/21 04:39:01;;;;;;;;;;;;;;;6.60;90.55;101950.41;4998778;28;19953;-68
2023/04/21 04:41:29;;;;;;;;;;;;;;;6.61;91.13;101945.00;5016397;28;20044;-69
2023/04/21 04:43:56;;;;;;;;;;;;;;;6.61;91.66;101939.69;5015887;28;20309;-68
2023/04/21 04:46:23;;;;;;;;;;;;;;;6.58;92.59;101933.78;5015872;28;19919;-68
2023/04/21 04:48:48;;;;;;;;;;;;;;;6.61;92.81;101931.75;5015650;28;19913;-68
2023/04/21 04:51:15;;;;;;;;;;;;;;;6.65;93.77;101929.75;5016077;28;19913;-68
2023/04/21 04:53:40;;;;;;;;;;;;;;;6.74;93.12;101927.31;5015782;28;19921;-69
2023/04/21 04:56:06;;;;;;;;;;;;;;;6.83;92.61;101917.84;5015732;28;19920;-69
2023/04/21 04:58:31;;;;;;;;;;;;;;;6.97;91.89;101928.31;5015886;28;19914;-68
2023/04/21 05:00:56;;;;;;;;;;;;;;;7.16;90.05;101933.09;5015786;28;19913;-67
2023/04/21 05:03:22;;;;;;;;;;;;;;;7.37;89.42;101920.94;5015266;28;19921;-68
2023/04/21 05:05:47;;;;;;;;;;;;;;;7.56;89.13;101928.38;5015499;28;19918;-68
2023/04/21 05:08:12;;;;;;;;;;;;;;;7.65;89.48;101922.38;5015430;28;19919;-68
2023/04/21 05:10:38;;;;;;;;;;;;;;;7.69;88.85;101922.97;4997864;28;19960;-68
2023/04/21 05:13:03;;;;;;;;;;;;;;;7.76;88.94;101927.69;5015627;28;20296;-68
2023/04/21 05:15:28;;;;;;;;;;;;;;;7.74;88.33;101926.13;5015274;28;20333;-68
2023/04/21 05:17:54;;;;;;;;;;;;;;;7.75;87.55;101920.69;5014944;28;20397;-68
2023/04/21 05:20:19;;;;;;;;;;;;;;;7.72;88.96;101925.41;5014993;28;19925;-68
2023/04/21 05:22:45;;;;;;;;;;;;;;;7.71;88.82;101924.56;5015868;28;19925;-68
2023/04/21 05:25:14;;;;;;;;;;;;;;;7.78;88.23;101925.78;4998709;28;19952;-68
2023/04/21 05:27:40;;;;;;;;;;;;;;;7.87;89.02;101923.41;5017829;28;19924;-66
2023/04/21 05:30:06;;;;;;;;;;;;;;;7.99;88.29;101923.31;5019515;28;19917;-69
2023/04/21 05:32:31;;;;;;;;;;;;;;;8.09;87.57;101915.47;5015463;28;19972;-69
2023/04/21 05:34:58;;;;;;;;;;;;;;;8.11;88.22;101921.53;5016459;28;19920;-67
2023/04/21 05:37:23;;;;;;;;;;;;;;;8.19;87.95;101924.44;5017159;28;20264;-68
2023/04/21 05:39:49;;;;;;;;;;;;;;;8.34;86.44;101923.25;5016594;28;19929;-69
2023/04/21 05:42:17;;;;;;;;;;;;;;;8.54;86.45;101926.16;5020801;28;19981;-66
2023/04/21 05:44:42;;;;;;;;;;;;;;;8.61;85.29;101919.41;5023035;28;19960;-65
2023/04/21 05:47:08;;;;;;;;;;;;;;;8.64;84.55;101919.16;5021581;28;19920;-66
2023/04/21 05:49:33;;;;;;;;;;;;;;;8.75;84.22;101913.84;5018101;28;19920;-67
2023/04/21 05:51:58;;;;;;;;;;;;;;;8.78;84.24;101910.94;5009511;28;20367;-70
2023/04/21 05:54:24;;;;;;;;;;;;;;;8.81;84.25;101908.03;4983892;28;20008;-67
2023/04/21 05:56:49;;;;;;;;;;;;;;;8.91;84.66;101903.66;4987695;28;19917;-67
2023/04/21 05:59:15;;;;;;;;;;;;;;;8.94;83.06;101906.06;4988778;28;20000;-68
2023/04/21 06:01:40;;;;;;;;;;;;;;;8.99;82.44;101906.56;4983045;28;19921;-69
2023/04/21 06:04:05;;;;;;;;;;;;;;;8.99;82.19;101898.59;4985420;28;19914;-68
2023/04/21 06:06:31;;;;;;;;;;;;;;;9.10;83.15;101903.03;4985092;28;19918;-68
2023/04/21 06:08:56;;;;;;;;;;;;;;;9.21;82.00;101907.44;4983785;28;20393;-68
2023/04/21 06:11:22;;;;;;;;;;;;;;;9.17;82.35;101904.19;4985927;28;20357;-67
2023/04/21 06:13:48;;;;;;;;;;;;;;;9.21;82.19;101902.13;4984733;28;20255;-67
2023/04/21 06:16:13;;;;;;;;;;;;;;;9.22;83.11;101914.44;4983454;28;19921;-67
2023/04/21 06:18:39;;;;;;;;;;;;;;;9.15;83.40;101911.47;4983233;28;19969;-66
2023/04/21 06:21:04;;;;;;;;;;;;;;;9.16;82.99;101909.66;4986280;28;19968;-67
2023/04/21 06:23:29;;;;;;;;;;;;;;;9.22;83.51;101909.13;4984551;28;19957;-67
2023/04/21 06:26:03;;;;;;;;;;;;;;;9.27;82.69;101909.63;4983138;28;19961;-70
2023/04/21 06:28:33;;;;;;;;;;;;;;;9.34;82.22;101916.13;4991738;28;19961;-66
2023/04/21 06:31:03;;;;;;;;;;;;;;;9.39;81.86;101905.94;4962052;28;19964;-69
2023/04/21 06:33:29;;;;;;;;;;;;;;;9.48;81.91;101907.81;4992382;28;19914;-68
2023/04/21 06:35:54;;;;;;;;;;;;;;;9.55;81.08;101906.38;4983392;28;19921;-69
2023/04/21 06:38:20;;;;;;;;;;;;;;;9.49;80.61;101906.00;4975704;28;19933;-70
2023/04/21 06:40:45;;;;;;;;;;;;;;;9.41;81.35;101901.34;4974833;28;19925;-68
2023/04/21 06:43:10;;;;;;;;;;;;;;;9.43;80.97;101896.72;4974616;28;19921;-68
2023/04/21 06:45:36;;;;;;;;;;;;;;;9.42;81.31;101896.88;4974496;28;20388;-72
2023/04/21 06:48:01;;;;;;;;;;;;;;;9.41;81.56;101896.03;4974757;28;20362;-71
2023/04/21 06:50:26;;;;;;;;;;;;;;;9.41;81.63;101898.69;4974998;28;19961;-70
2023/04/21 06:52:52;;;;;;;;;;;;;;;9.36;82.15;101894.72;4974651;28;19969;-69
2023/04/21 06:55:17;;;;;;;;;;;;;;;9.37;81.77;101897.25;4974698;28;20307;-69
2023/04/21 06:57:42;;;;;;;;;;;;;;;9.42;81.69;101897.72;4974317;28;19914;-68
2023/04/21 07:00:08;;;;;;;;;;;;;;;9.53;81.87;101896.81;4974605;28;19914;-70
2023/04/21 07:02:33;;;;;;;;;;;;;;;9.56;81.52;101894.75;4974685;28;19921;-68
2023/04/21 07:04:59;;;;;;;;;;;;;;;9.59;80.82;101891.00;4974312;28;19922;-69
2023/04/21 07:07:24;;;;;;;;;;;;;;;9.58;81.01;101891.97;4974230;28;20429;-67
2023/04/21 07:09:50;;;;;;;;;;;;;;;9.56;80.37;101881.47;4974349;28;19918;-69
2023/04/21 07:12:18;;;;;;;;;;;;;;;9.55;81.01;101884.25;4974882;28;19974;-72
2023/04/21 07:14:44;;;;;;;;;;;;;;;9.56;80.98;101876.13;4975367;28;19921;-71
2023/04/21 07:17:09;;;;;;;;;;;;;;;9.63;81.01;101879.13;4974986;28;20012;-69
2023/04/21 07:19:35;;;;;;;;;;;;;;;9.73;80.75;101884.50;4974429;28;19914;-69
2023/04/21 07:22:01;;;;;;;;;;;;;;;9.79;80.66;101883.97;4974430;28;19914;-69
2023/04/21 07:24:26;;;;;;;;;;;;;;;9.86;80.87;101887.81;4973975;28;19937;-67
2023/04/21 07:26:51;;;;;;;;;;;;;;;9.86;79.67;101882.50;4973892;28;19914;-68
2023/04/21 07:29:17;;;;;;;;;;;;;;;9.91;79.37;101878.47;4973819;28;20017;-68
2023/04/21 07:31:42;;;;;;;;;;;;;;;9.95;79.47;101876.38;4973867;28;19918;-69
2023/04/21 07:34:07;;;;;;;;;;;;;;;9.99;78.95;101871.63;4973858;28;20277;-67
2023/04/21 07:36:33;;;;;;;;;;;;;;;10.06;79.31;101872.78;4973891;28;19922;-68
2023/04/21 07:38:58;;;;;;;;;;;;;;;10.18;79.05;101871.75;4978887;28;19914;-69
2023/04/21 07:41:23;;;;;;;;;;;;;;;10.21;78.01;101872.34;4979693;28;19917;-69
2023/04/21 07:43:49;;;;;;;;;;;;;;;10.22;78.39;101868.72;4986644;28;19917;-69
2023/04/21 07:46:14;;;;;;;;;;;;;;;10.17;78.17;101868.25;4984853;28;19921;-69
2023/04/21 07:48:39;;;;;;;;;;;;;;;10.21;78.05;101867.03;4981094;28;20036;-72
2023/04/21 07:51:05;;;;;;;;;;;;;;;10.31;78.37;101860.91;4981327;28;20016;-70
2023/04/21 07:53:54;;;;;;;;;;;;;;;10.36;77.31;101861.31;4983705;28;20361;-72
2023/04/21 07:56:19;;;;;;;;;;;;;;;10.42;77.39;101863.47;4986097;28;20357;-74
2023/04/21 07:58:45;;;;;;;;;;;;;;;10.52;77.34;101851.03;4981639;28;19921;-76
2023/04/21 08:04:21;;;;;;;;;;;;;;;10.80;77.02;101846.75;4992000;28;19925;-71
2023/04/21 08:06:46;;;;;;;;;;;;;;;10.93;76.05;101847.31;4978704;28;20025;-71
2023/04/21 08:09:12;;;;;;;;;;;;;;;11.02;75.82;101840.34;4983881;28;19945;-73
2023/04/21 08:11:38;;;;;;;;;;;;;;;11.08;75.35;101839.78;4982616;28;19914;-69
2023/04/21 08:14:14;;;;;;;;;;;;;;;;;;;;;
2023/04/21 08:16:51;;;;;;;;;;;;;;;11.12;74.90;101841.16;4983301;28;20385;-69
2023/04/21 08:19:17;;;;;;;;;;;;;;;11.12;74.69;101838.50;4982083;28;19922;-68
2023/04/21 08:21:42;;;;;;;;;;;;;;;11.18;74.37;101845.94;4982615;28;19918;-70
2023/04/21 08:24:07;;;;;;;;;;;;;;;11.23;74.19;101830.34;4987265;28;19921;-70
2023/04/21 08:26:33;;;;;;;;;;;;;;;11.29;73.36;101836.97;4977159;28;19961;-68
2023/04/21 08:29:00;;;;;;;;;;;;;;;11.35;73.32;101829.25;4983849;28;19918;-73
2023/04/21 08:31:25;;;;;;;;;;;;;;;11.30;72.94;101833.31;4981858;28;19918;-69
2023/04/21 08:33:51;;;;;;;;;;;;;;;11.29;73.20;101835.16;4987189;28;20318;-69
2023/04/21 08:36:16;;;;;;;;;;;;;;;11.36;72.94;101830.09;4978790;28;19913;-71
2023/04/21 08:38:42;;;;;;;;;;;;;;;11.39;72.70;101838.63;4980413;28;19913;-68
2023/04/21 08:41:08;;;;;;;;;;;;;;;11.28;72.70;101830.81;4981562;28;19921;-71
2023/04/21 08:43:33;;;;;;;;;;;;;;;11.27;72.86;101818.41;5006679;28;19918;-70
2023/04/21 08:45:59;;;;;;;;;;;;;;;11.39;72.69;101811.97;4984897;28;19921;-70
2023/04/21 08:48:25;;;;;;;;;;;;;;;11.51;72.17;101825.13;4979969;28;19914;-69
2023/04/21 08:50:51;;;;;;;;;;;;;;;11.61;71.23;101815.31;4975454;28;20473;-71
2023/04/21 08:53:16;;;;;;;;;;;;;;;11.71;71.59;101816.13;4977672;28;20362;-68
2023/04/21 08:55:42;;;;;;;;;;;;;;;11.73;70.93;101808.81;4983318;28;19906;-69
2023/04/21 08:58:08;;;;;;;;;;;;;;;11.78;70.52;101802.06;5007553;28;19917;-71
2023/04/21 09:00:36;;;;;;;;;;;;;;;11.89;70.49;101797.56;4982504;28;19914;-68
2023/04/21 09:03:03;;;;;;;;;;;;;;;11.98;69.60;101808.19;4978269;28;19933;-71
2023/04/21 09:05:30;;;;;;;;;;;;;;;12.21;70.15;101803.34;4982136;28;20002;-69
2023/04/21 09:08:11;;;;;;;;;;;;;;;12.46;69.09;101796.47;4985455;28;19913;-69
2023/04/21 09:10:43;;;;;;;;;;;;;;;12.59;68.07;101802.28;5005151;28;19917;-72
2023/04/21 09:13:09;;;;;;;;;;;;;;;12.70;67.22;101802.03;5015536;28;19919;-70
2023/04/21 09:15:38;;;;;;;;;;;;;;;12.76;66.54;101802.47;5007434;28;19914;-72
2023/04/21 09:18:09;;;;;;;;;;;;;;;12.87;66.31;101797.72;4980894;28;20467;-69
2023/04/21 09:20:34;;;;;;;;;;;;;;;13.03;65.28;101795.22;4993640;28;19921;-71
2023/04/21 09:23:03;;;;;;;;;;;;;;;13.15;64.73;101790.44;4973852;28;19929;-70
2023/04/21 09:25:30;;;;;;;;;;;;;;;13.16;64.53;101789.47;4990525;28;19918;-69
2023/04/21 09:27:56;;;;;;;;;;;;;;;13.13;64.37;101789.78;4986853;28;20309;-72
2023/04/21 09:30:21;;;;;;;;;;;;;;;13.24;63.91;101791.38;4988261;28;19918;-70
2023/04/21 09:32:49;;;;;;;;;;;;;;;13.42;63.80;101788.69;4989816;28;20125;-71
2023/04/21 09:35:14;;;;;;;;;;;;;;;13.59;62.69;101791.34;4982494;28;19918;-70
2023/04/21 09:37:42;;;;;;;;;;;;;;;13.80;62.18;101792.78;4991483;28;19934;-68
2023/04/21 09:40:11;;;;;;;;;;;;;;;13.86;61.31;101784.94;4990347;28;19922;-69
2023/04/21 09:42:36;;;;;;;;;;;;;;;13.95;60.80;101781.34;5000355;28;19949;-69
2023/04/21 09:45:02;;;;;;;;;;;;;;;13.97;60.38;101783.00;4995987;28;19945;-69
2023/04/21 09:47:30;;;;;;;;;;;;;;;13.83;59.85;101781.75;5000869;28;19920;-67
2023/04/21 09:49:59;;;;;;;;;;;;;;;13.86;60.87;101782.28;4977072;28;19921;-71
2023/04/21 09:52:27;;;;;;;;;;;;;;;13.86;60.56;101779.59;4985735;28;20412;-69
2023/04/21 09:54:56;;;;;;;;;;;;;;;14.00;59.68;101771.97;4979840;28;19914;-70
2023/04/21 09:57:24;;;;;;;;;;;;;;;14.09;59.39;101771.00;4979088;28;20051;-70
2023/04/21 10:00:00;;;;;;;;;;;;;;;14.30;59.76;101768.75;4979007;28;19921;-70
2023/04/21 10:02:30;;;;;;;;;;;;;;;14.38;58.24;101763.41;4980559;28;19929;-71
2023/04/21 10:04:55;;;;;;;;;;;;;;;14.48;58.32;101772.19;4975596;28;19918;-70
2023/04/21 10:07:20;;;;;;;;;;;;;;;14.35;57.31;101769.09;4980492;28;20293;-70
2023/04/21 10:09:56;;;;;;;;;;;;;;;14.23;58.34;101762.38;4994782;28;19914;-69
2023/04/21 10:12:21;;;;;;;;;;;;;;;14.26;58.88;101756.69;4993518;28;19917;-71
2023/04/21 10:14:56;;;;;;;;;;;;;;;14.30;58.32;101755.34;4994698;28;19921;-68
2023/04/21 10:17:23;;;;;;;;;;;;;;;14.35;58.87;101754.84;4994485;28;19913;-68
2023/04/21 10:19:52;;;;;;;;;;;;;;;14.42;57.95;101751.34;4994582;28;19913;-68
2023/04/21 10:22:30;;;;;;;;;;;;;;;14.28;57.33;101757.34;4994298;28;20369;-67
2023/04/21 10:24:56;;;;;;;;;;;;;;;14.34;57.58;101747.81;4993827;28;20832;-70
2023/04/21 10:27:32;;;;;;;;;;;;;;;14.37;57.99;101745.66;4977276;28;19913;-73
2023/04/21 10:29:58;;;;;;;;;;;;;;;14.40;57.27;101737.28;4994721;28;20071;-70
2023/04/21 10:32:40;;;;;;;;;;;;;;;14.46;57.06;101742.03;4994630;28;19973;-69
2023/04/21 10:35:12;;;;;;;;;;;;;;;14.44;57.00;101735.97;4978193;28;20404;-70
2023/04/21 10:37:39;;;;;;;;;;;;;;;14.47;56.85;101743.72;4994400;28;19984;-69
2023/04/21 10:40:08;;;;;;;;;;;;;;;14.43;56.87;101742.34;4994438;28;19921;-69
2023/04/21 10:42:35;;;;;;;;;;;;;;;14.35;56.92;101739.63;4994331;28;20428;-69
2023/04/21 10:45:05;;;;;;;;;;;;;;;14.45;55.87;101734.13;4994537;28;19918;-70
2023/04/21 10:47:44;;;;;;;;;;;;;;;14.50;55.65;101732.66;4994687;28;20266;-71
2023/04/21 10:50:14;;;;;;;;;;;;;;;14.54;55.79;101730.50;4994552;28;19925;-69
2023/04/21 10:52:42;;;;;;;;;;;;;;;14.44;55.94;101735.97;4993839;28;19913;-70
2023/04/21 10:55:11;;;;;;;;;;;;;;;14.39;55.72;101729.41;4993672;28;19914;-69
2023/04/21 10:57:36;;;;;;;;;;;;;;;14.35;56.27;101728.06;4993580;28;19936;-70
2023/04/21 11:00:05;;;;;;;;;;;;;;;14.36;56.27;101733.25;4993776;28;20362;-70
2023/04/21 11:02:31;;;;;;;;;;;;;;;14.23;55.89;101716.81;4993818;28;19917;-68
2023/04/21 11:04:57;;;;;;;;;;;;;;;14.18;55.86;101727.19;4988736;28;20013;-68
2023/04/21 11:07:23;;;;;;;;;;;;;;;14.21;55.92;101716.16;4982344;28;19925;-71
2023/04/21 11:10:15;;;;;;;;;;;;;;;14.06;56.79;101717.75;4974878;28;20014;-71
2023/04/21 11:12:41;;;;;;;;;;;;;;;14.04;56.55;101720.59;4972319;28;19972;-70
2023/04/21 11:15:08;;;;;;;;;;;;;;;14.01;56.72;101722.75;4976055;28;20317;-70
2023/04/21 11:17:33;;;;;;;;;;;;;;;13.99;56.38;101711.38;4987867;28;20413;-75
2023/04/21 11:20:00;;;;;;;;;;;;;;;14.02;56.79;101711.88;4993423;28;19949;-72
2023/04/21 11:22:26;;;;;;;;;;;;;;;14.13;56.38;101718.78;5001323;28;19991;-71
2023/04/21 11:24:55;;;;;;;;;;;;;;;14.27;56.37;101710.13;4983174;28;20464;-69
2023/04/21 11:27:21;;;;;;;;;;;;;;;14.35;55.60;101706.63;4982001;28;19918;-71
2023/04/21 11:29:47;;;;;;;;;;;;;;;14.35;55.94;101703.94;4991064;28;19918;-70
2023/04/21 11:32:13;;;;;;;;;;;;;;;14.47;56.11;101695.47;4985200;28;20365;-71
2023/04/21 11:34:38;;;;;;;;;;;;;;;14.62;55.74;101702.84;4988770;28;19960;-69
2023/04/21 11:37:05;;;;;;;;;;;;;;;14.69;55.27;101699.31;4980921;28;19918;-70
2023/04/21 11:39:30;;;;;;;;;;;;;;;14.77;55.68;101690.47;4986506;28;19921;-71
2023/04/21 11:41:56;;;;;;;;;;;;;;;14.83;54.64;101693.31;4983521;28;19920;-70
2023/04/21 11:44:32;;;;;;;;;;;;;;;14.84;55.15;101686.09;4986230;28;19915;-73
2023/04/21 11:46:57;;;;;;;;;;;;;;;14.78;54.73;101682.25;4988253;28;19922;-75
2023/04/21 11:49:29;;;;;;;;;;;;;;;14.88;54.66;101687.44;4984870;28;19956;-70
2023/04/21 11:51:55;;;;;;;;;;;;;;;14.99;54.19;101689.78;4985108;28;20264;-71
2023/04/21 11:54:23;;;;;;;;;;;;;;;15.08;54.41;101686.09;4986693;28;19918;-76
2023/04/21 11:56:49;;;;;;;;;;;;;;;15.13;53.69;101686.41;4992066;28;19917;-73
2023/04/21 11:59:15;;;;;;;;;;;;;;;15.15;54.25;101684.41;5007503;28;19925;-72
2023/04/21 12:01:41;;;;;;;;;;;;;;;15.20;53.89;101686.56;5010368;28;19925;-73
2023/04/21 12:04:12;;;;;;;;;;;;;;;15.08;53.99;101683.41;5014506;28;19961;-74
2023/04/21 12:06:37;;;;;;;;;;;;;;;14.82;54.77;101686.28;4997656;28;19966;-70
2023/04/21 12:09:03;;;;;;;;;;;;;;;14.93;55.11;101685.09;4993611;28;20328;-73
2023/04/21 12:11:29;;;;;;;;;;;;;;;14.95;55.04;101683.06;4993955;28;19921;-74
2023/04/21 12:13:58;;;;;;;;;;;;;;;14.83;54.41;101682.59;4993674;28;19945;-72
2023/04/21 12:16:28;;;;;;;;;;;;;;;14.70;54.25;101679.56;4992998;28;19914;-72
2023/04/21 12:18:56;;;;;;;;;;;;;;;14.61;54.48;101671.69;4992162;28;19917;-73
2023/04/21 12:21:25;;;;;;;;;;;;;;;14.66;54.59;101682.75;4993011;28;19920;-74
2023/04/21 12:23:51;;;;;;;;;;;;;;;14.63;54.35;101681.22;4993158;28;19918;-70
2023/04/21 12:26:16;;;;;;;;;;;;;;;14.72;54.26;101668.66;4993258;28;20052;-72
2023/04/21 12:28:42;;;;;;;;;;;;;;;14.81;53.69;101670.34;4992636;28;19918;-73
2023/04/21 12:31:07;;;;;;;;;;;;;;;14.90;51.16;101669.34;4993130;28;19990;-72
2023/04/21 12:33:32;;;;;;;;;;;;;;;14.82;51.66;101664.81;4992225;28;19914;-72
2023/04/21 12:35:58;;;;;;;;;;;;;;;14.84;51.16;101667.34;4992776;28;19920;-71
2023/04/21 12:38:24;;;;;;;;;;;;;;;14.81;51.92;101659.63;4992260;28;19913;-73
2023/04/21 12:40:49;;;;;;;;;;;;;;;14.68;51.55;101654.75;4992210;28;19924;-73
2023/04/21 12:43:14;;;;;;;;;;;;;;;14.69;52.22;101656.44;4995055;28;19914;-74